Time;durP1;ratioP1;P1;durP2;ratioP2;P2;SDS_P1;SDS_P2;PMS_P1;PMS_P2;Temp;Humidity;BMP_temperature;BMP_pressure;BME280_temperature;BME280_humidity;BME280_pressure;Samples;Min_cycle;Max_cycle;Signal;HPM_P1;HPM_P2
2021/05/13 00:00:36;;;;;;;7.30;4.47;;;16.50;47.00;;;;;;5091083;28;20470;-83
2021/05/13 00:03:02;;;;;;;12.40;5.20;;;16.10;47.50;;;;;;5090305;28;20443;-83
2021/05/13 00:05:29;;;;;;;9.10;4.40;;;16.30;47.30;;;;;;5091685;28;20445;-83
2021/05/13 00:07:55;;;;;;;10.70;4.93;;;16.30;47.50;;;;;;5090406;28;20434;-83
2021/05/13 00:10:23;;;;;;;8.00;4.57;;;16.10;47.50;;;;;;5091806;28;20450;-83
2021/05/13 00:12:54;;;;;;;9.47;5.53;;;16.20;48.00;;;;;;5090274;28;20450;-83
2021/05/13 00:15:22;;;;;;;11.53;4.97;;;16.50;47.50;;;;;;5091060;28;20443;-83
2021/05/13 00:17:49;;;;;;;7.87;4.60;;;16.50;47.10;;;;;;5091097;28;20459;-83
2021/05/13 00:20:21;;;;;;;9.10;5.17;;;16.50;47.60;;;;;;5092993;28;20431;-82
2021/05/13 00:22:47;;;;;;;13.40;6.80;;;16.70;47.40;;;;;;5095595;28;20447;-83
2021/05/13 00:25:14;;;;;;;10.70;5.00;;;16.70;46.70;;;;;;5088765;28;20471;-83
2021/05/13 00:27:41;;;;;;;9.80;5.40;;;15.90;48.00;;;;;;5089662;28;20455;-83
2021/05/13 00:30:09;;;;;;;18.20;5.80;;;15.50;49.60;;;;;;5089775;28;20454;-83
2021/05/13 00:32:37;;;;;;;13.30;6.13;;;15.20;50.10;;;;;;5088931;28;20445;-83
2021/05/13 00:35:04;;;;;;;11.60;5.47;;;14.90;50.80;;;;;;5088090;28;20548;-83
2021/05/13 00:37:30;;;;;;;17.70;6.80;;;15.00;50.90;;;;;;5089735;28;20542;-83
2021/05/13 00:39:57;;;;;;;19.00;6.50;;;15.10;50.50;;;;;;5089947;28;20449;-83
2021/05/13 00:42:23;;;;;;;10.50;4.83;;;15.30;50.10;;;;;;5089515;28;20503;-83
2021/05/13 00:44:52;;;;;;;13.73;5.60;;;15.50;49.60;;;;;;5089471;28;20471;-83
2021/05/13 00:47:20;;;;;;;13.13;5.10;;;15.30;49.80;;;;;;5090339;28;20451;-83
2021/05/13 00:49:46;;;;;;;11.73;5.20;;;14.90;50.50;;;;;;5090422;28;20447;-83
2021/05/13 00:52:14;;;;;;;7.77;6.00;;;15.00;50.60;;;;;;5090567;28;20448;-83
2021/05/13 00:54:41;;;;;;;7.13;5.33;;;15.20;50.10;;;;;;5089543;28;20455;-83
2021/05/13 00:57:08;;;;;;;15.63;5.60;;;15.10;50.10;;;;;;5090309;28;20437;-83
2021/05/13 00:59:38;;;;;;;10.50;5.90;;;15.10;50.70;;;;;;5091135;28;20428;-83
2021/05/13 01:02:04;;;;;;;7.10;5.30;;;15.10;50.30;;;;;;5089468;28;20475;-83
2021/05/13 01:04:32;;;;;;;14.27;5.30;;;15.60;50.10;;;;;;5088411;28;20980;-83
2021/05/13 01:06:58;;;;;;;6.70;4.23;;;15.80;48.90;;;;;;5088543;28;20535;-83
2021/05/13 01:09:27;;;;;;;10.60;5.97;;;15.80;49.00;;;;;;5087236;28;20470;-83
2021/05/13 01:11:55;;;;;;;13.60;5.50;;;15.80;48.20;;;;;;5087297;28;20437;-83
2021/05/13 01:14:25;;;;;;;10.60;6.53;;;16.00;48.20;;;;;;5086064;28;20551;-83
2021/05/13 01:16:58;;;;;;;11.83;5.40;;;16.10;47.70;;;;;;5087383;28;20447;-83
2021/05/13 01:19:24;;;;;;;15.03;5.40;;;15.90;47.90;;;;;;5090790;28;20479;-83
2021/05/13 01:21:52;;;;;;;23.97;5.80;;;15.80;48.00;;;;;;5090590;28;20483;-82
2021/05/13 01:24:19;;;;;;;16.67;5.57;;;15.80;48.00;;;;;;5091099;28;20504;-83
2021/05/13 01:26:47;;;;;;;10.63;5.90;;;15.60;48.30;;;;;;5091489;28;20468;-83
2021/05/13 01:29:15;;;;;;;17.80;5.40;;;15.30;48.80;;;;;;5091746;28;20455;-83
2021/05/13 01:31:41;;;;;;;12.83;5.57;;;15.20;50.00;;;;;;5091829;28;20458;-83
2021/05/13 01:34:08;;;;;;;11.00;5.63;;;15.00;50.00;;;;;;5088683;28;20467;-83
2021/05/13 01:36:35;;;;;;;12.40;5.70;;;14.80;50.40;;;;;;5094836;28;20444;-83
2021/05/13 01:39:04;;;;;;;8.50;5.10;;;14.60;51.00;;;;;;5099434;28;20423;-83
2021/05/13 01:41:30;;;;;;;11.40;5.17;;;15.20;50.80;;;;;;5099596;28;20475;-84
2021/05/13 01:43:57;;;;;;;9.83;6.03;;;15.30;49.30;;;;;;5098714;28;20488;-83
2021/05/13 01:46:24;;;;;;;5.07;4.13;;;15.40;49.20;;;;;;5099151;28;20453;-84
2021/05/13 01:48:50;;;;;;;7.00;4.67;;;15.70;49.40;;;;;;5099091;28;20448;-83
2021/05/13 01:51:17;;;;;;;10.77;4.97;;;16.20;48.30;;;;;;5097378;28;20458;-83
2021/05/13 01:53:44;;;;;;;6.30;4.73;;;16.40;47.60;;;;;;5090798;28;20455;-83
2021/05/13 01:56:12;;;;;;;11.83;4.70;;;16.10;46.90;;;;;;5089219;28;20455;-83
2021/05/13 01:58:39;;;;;;;10.07;4.27;;;16.10;48.10;;;;;;5089186;28;20482;-83
2021/05/13 02:01:09;;;;;;;12.43;5.10;;;16.50;48.00;;;;;;5092518;28;20477;-83
2021/05/13 02:03:36;;;;;;;7.37;5.13;;;16.40;46.80;;;;;;5097809;28;20488;-83
2021/05/13 02:06:03;;;;;;;10.00;5.77;;;16.30;46.80;;;;;;5097444;28;20446;-83
2021/05/13 02:08:30;;;;;;;12.20;5.13;;;16.30;47.50;;;;;;5090554;28;20473;-83
2021/05/13 02:10:56;;;;;;;9.20;5.10;;;16.30;46.90;;;;;;5089492;28;20441;-83
2021/05/13 02:13:24;;;;;;;6.20;4.70;;;16.60;47.00;;;;;;5088898;28;20493;-83
2021/05/13 02:15:50;;;;;;;15.47;4.90;;;16.60;46.50;;;;;;5091067;28;20512;-84
2021/05/13 02:18:17;;;;;;;6.83;4.60;;;16.60;46.80;;;;;;5089486;28;20479;-83
2021/05/13 02:20:43;;;;;;;5.70;4.53;;;16.70;46.50;;;;;;5088412;28;20485;-83
2021/05/13 02:23:09;;;;;;;9.30;5.20;;;16.80;46.00;;;;;;5088663;28;20531;-83
2021/05/13 02:25:38;;;;;;;11.33;5.37;;;16.60;46.10;;;;;;5088289;28;20422;-83
2021/05/13 02:28:04;;;;;;;9.73;4.30;;;16.40;46.30;;;;;;5088279;28;20509;-83
2021/05/13 02:30:32;;;;;;;7.40;4.00;;;16.30;47.30;;;;;;5088398;28;20548;-83
2021/05/13 02:32:58;;;;;;;7.93;3.60;;;16.60;46.80;;;;;;5088834;28;20452;-82
2021/05/13 02:35:25;;;;;;;8.70;4.00;;;17.00;46.60;;;;;;5088440;28;20449;-83
2021/05/13 02:37:51;;;;;;;11.30;5.77;;;17.00;45.60;;;;;;5089648;28;20433;-83
2021/05/13 02:40:18;;;;;;;14.43;6.13;;;16.70;45.10;;;;;;5088936;28;20479;-83
2021/05/13 02:42:46;;;;;;;9.67;6.00;;;16.50;46.00;;;;;;5089259;28;20439;-83
2021/05/13 02:45:13;;;;;;;16.10;5.40;;;16.40;46.50;;;;;;5090676;28;20541;-83
2021/05/13 02:47:41;;;;;;;8.43;5.53;;;16.30;46.30;;;;;;5096567;28;20430;-83
2021/05/13 02:50:09;;;;;;;6.97;4.50;;;16.00;47.30;;;;;;5098244;28;20438;-83
2021/05/13 02:52:36;;;;;;;9.30;4.40;;;15.90;47.70;;;;;;5098190;28;20431;-84
2021/05/13 02:55:03;;;;;;;11.37;4.77;;;15.70;46.80;;;;;;5098327;28;20464;-84
2021/05/13 02:57:30;;;;;;;6.20;4.47;;;15.80;46.70;;;;;;5098523;28;20408;-84
2021/05/13 03:00:04;;;;;;;6.87;4.90;;;16.00;47.20;;;;;;5096749;28;20433;-83
2021/05/13 03:02:30;;;;;;;6.40;4.50;;;15.90;47.00;;;;;;5098055;28;20483;-83
2021/05/13 03:04:58;;;;;;;9.50;5.00;;;16.30;47.60;;;;;;5098140;28;20472;-84
2021/05/13 03:07:25;;;;;;;6.40;4.30;;;16.50;46.80;;;;;;5098138;28;20453;-84
2021/05/13 03:09:56;;;;;;;5.00;3.83;;;16.70;46.50;;;;;;5095541;28;20438;-83
2021/05/13 03:12:23;;;;;;;18.23;4.97;;;16.70;45.80;;;;;;5089027;28;20400;-83
2021/05/13 03:14:49;;;;;;;9.00;5.00;;;15.40;46.90;;;;;;5092157;28;20468;-82
2021/05/13 03:17:15;;;;;;;11.07;5.23;;;14.60;49.80;;;;;;5088873;28;20456;-83
2021/05/13 03:19:44;;;;;;;16.03;5.50;;;14.80;49.80;;;;;;5088594;28;20455;-83
2021/05/13 03:22:15;;;;;;;6.10;5.13;;;13.60;51.60;;;;;;5087727;28;20539;-83
2021/05/13 03:24:46;;;;;;;9.10;5.00;;;13.60;52.80;;;;;;5136982;22;20526;-90
2021/05/13 03:27:15;;;;;;;10.93;5.60;;;13.90;51.60;;;;;;5095407;28;20422;-89
2021/05/13 03:29:41;;;;;;;10.03;4.80;;;14.20;51.00;;;;;;5093422;28;20533;-89
2021/05/13 03:32:08;;;;;;;5.73;3.80;;;14.80;50.80;;;;;;5094027;28;20491;-89
2021/05/13 03:34:34;;;;;;;6.63;4.60;;;15.40;50.50;;;;;;5093601;28;20505;-89
2021/05/13 03:37:00;;;;;;;15.10;5.10;;;16.00;48.70;;;;;;5093754;28;20488;-89
2021/05/13 03:39:28;;;;;;;13.83;4.93;;;15.80;47.90;;;;;;5093190;28;20438;-89
2021/05/13 03:41:55;;;;;;;11.03;5.70;;;15.30;48.50;;;;;;5093324;28;20567;-89
2021/05/13 03:44:21;;;;;;;8.73;5.27;;;15.70;48.80;;;;;;5094397;28;20534;-89
2021/05/13 03:46:48;;;;;;;8.57;4.23;;;15.70;47.20;;;;;;5093907;28;20567;-89
2021/05/13 03:49:14;;;;;;;14.83;4.40;;;15.70;48.20;;;;;;5094325;28;20525;-89
2021/05/13 03:51:41;;;;;;;12.47;5.00;;;15.70;48.30;;;;;;5094648;28;20447;-90
2021/05/13 03:54:07;;;;;;;8.77;4.67;;;15.80;46.90;;;;;;5094324;28;20581;-89
2021/05/13 03:56:34;;;;;;;10.90;5.00;;;15.50;48.10;;;;;;5094025;28;20426;-89
2021/05/13 03:59:05;;;;;;;11.40;5.33;;;15.00;49.30;;;;;;5094537;28;20790;-89
2021/05/13 04:01:45;;;;;;;7.13;5.10;;;14.60;49.50;;;;;;5094112;28;20579;-89
2021/05/13 04:04:12;;;;;;;13.43;5.17;;;14.50;49.90;;;;;;5113402;28;20447;-89
2021/05/13 04:06:39;;;;;;;9.40;5.40;;;14.00;50.50;;;;;;5102875;28;20438;-89
2021/05/13 04:09:09;;;;;;;13.03;5.30;;;13.70;51.80;;;;;;5096204;28;20435;-89
2021/05/13 04:11:37;;;;;;;8.60;5.17;;;13.70;52.20;;;;;;5097075;28;20446;-89
2021/05/13 04:14:04;;;;;;;7.17;4.47;;;13.90;53.10;;;;;;5096674;28;20505;-89
2021/05/13 04:16:32;;;;;;;6.63;4.50;;;13.90;53.00;;;;;;5096788;28;20584;-89
2021/05/13 04:18:59;;;;;;;6.33;4.97;;;14.00;52.10;;;;;;5096590;28;20466;-89
2021/05/13 04:21:25;;;;;;;8.60;5.10;;;14.00;51.80;;;;;;5097073;28;20561;-89
2021/05/13 04:23:52;;;;;;;15.57;5.47;;;14.10;51.90;;;;;;5099355;28;20454;-89
2021/05/13 04:26:18;;;;;;;11.20;5.77;;;13.70;51.90;;;;;;5098515;28;20454;-89
2021/05/13 04:28:45;;;;;;;5.73;4.50;;;13.60;52.80;;;;;;5098977;28;20450;-88
2021/05/13 04:31:12;;;;;;;9.90;5.00;;;13.40;52.70;;;;;;5098183;28;20776;-89
2021/05/13 04:33:38;;;;;;;7.30;5.10;;;13.20;52.70;;;;;;5097718;28;20467;-89
2021/05/13 04:36:05;;;;;;;13.50;5.13;;;13.30;53.30;;;;;;5098296;28;20745;-88
2021/05/13 04:38:32;;;;;;;8.13;5.00;;;13.20;53.70;;;;;;5097663;28;20430;-88
2021/05/13 04:40:58;;;;;;;7.67;5.33;;;13.40;53.80;;;;;;5099653;28;20482;-88
2021/05/13 04:43:31;;;;;;;7.60;5.67;;;13.80;53.00;;;;;;5117283;28;20441;-89
2021/05/13 04:45:58;;;;;;;9.63;4.30;;;14.00;52.20;;;;;;5119295;28;20498;-88
2021/05/13 04:48:26;;;;;;;10.00;5.00;;;14.00;53.20;;;;;;5119220;28;20500;-89
2021/05/13 04:50:53;;;;;;;15.50;5.30;;;14.00;53.20;;;;;;5119063;28;20443;-89
2021/05/13 04:53:19;;;;;;;9.20;5.40;;;14.10;52.30;;;;;;5119198;28;20455;-88
2021/05/13 04:55:46;;;;;;;6.93;4.57;;;14.30;52.40;;;;;;5118793;28;20516;-87
2021/05/13 04:58:12;;;;;;;11.53;5.17;;;14.60;51.40;;;;;;5118158;28;20476;-89
2021/05/13 05:00:38;;;;;;;7.63;4.83;;;14.30;51.30;;;;;;5115450;28;20459;-89
2021/05/13 05:03:06;;;;;;;14.33;5.43;;;14.30;52.00;;;;;;5114964;28;20510;-88
2021/05/13 05:05:32;;;;;;;16.30;4.77;;;14.60;50.70;;;;;;5110218;28;20883;-88
2021/05/13 05:07:59;;;;;;;9.60;5.30;;;14.20;51.40;;;;;;5113418;28;20917;-88
2021/05/13 05:10:25;;;;;;;7.93;4.93;;;13.90;52.40;;;;;;5105780;28;20986;-88
2021/05/13 05:12:52;;;;;;;17.50;5.10;;;13.90;52.50;;;;;;5097370;28;20583;-89
2021/05/13 05:15:18;;;;;;;12.07;4.97;;;14.50;51.40;;;;;;5098606;28;20567;-89
2021/05/13 05:17:44;;;;;;;7.27;4.10;;;15.00;51.00;;;;;;5100967;28;20791;-89
2021/05/13 05:20:13;;;;;;;6.70;4.30;;;15.70;49.60;;;;;;5102525;28;20517;-89
2021/05/13 05:22:39;;;;;;;6.37;4.40;;;15.90;48.00;;;;;;5107722;28;20468;-88
2021/05/13 05:25:07;;;;;;;9.03;5.57;;;15.40;48.90;;;;;;5118420;28;20480;-89
2021/05/13 05:27:34;;;;;;;8.47;4.90;;;15.30;48.60;;;;;;5118458;28;20446;-88
2021/05/13 05:30:00;;;;;;;7.47;4.80;;;15.10;50.10;;;;;;5118377;28;20487;-88
2021/05/13 05:32:27;;;;;;;6.40;4.13;;;15.40;49.30;;;;;;5117517;28;20481;-89
2021/05/13 05:34:53;;;;;;;11.00;4.40;;;16.50;48.50;;;;;;5112350;28;20463;-89
2021/05/13 05:37:21;;;;;;;5.57;4.07;;;18.20;46.70;;;;;;5104824;28;20922;-89
2021/05/13 05:39:47;;;;;;;7.80;3.50;;;19.90;44.90;;;;;;5100589;28;20450;-89
2021/05/13 05:42:13;;;;;;;10.93;4.20;;;21.10;42.30;;;;;;5099391;28;20497;-90
2021/05/13 05:44:40;;;;;;;6.20;3.73;;;22.20;41.30;;;;;;5099171;28;20509;-90
2021/05/13 05:47:06;;;;;;;6.77;4.30;;;23.60;37.70;;;;;;5098520;28;20780;-90
2021/05/13 05:49:33;;;;;;;7.00;4.30;;;23.80;38.00;;;;;;5098456;28;20446;-89
2021/05/13 05:51:59;;;;;;;12.57;4.30;;;24.70;35.20;;;;;;5097756;28;20611;-89
2021/05/13 05:54:26;;;;;;;4.83;3.33;;;25.40;33.40;;;;;;5097707;28;20450;-90
2021/05/13 05:56:53;;;;;;;5.13;3.20;;;25.70;32.60;;;;;;5097867;28;20450;-90
2021/05/13 05:59:19;;;;;;;6.47;3.40;;;25.80;32.50;;;;;;5096953;28;20493;-90
2021/05/13 06:01:45;;;;;;;13.90;3.70;;;26.40;31.40;;;;;;5103262;28;20502;-90
2021/05/13 06:04:12;;;;;;;3.40;2.77;;;26.70;29.20;;;;;;5101288;28;20467;-90
2021/05/13 06:06:38;;;;;;;5.23;3.33;;;26.70;30.20;;;;;;5103050;28;20442;-90
2021/05/13 06:09:06;;;;;;;5.20;2.60;;;26.30;29.90;;;;;;5101813;28;20458;-90
2021/05/13 06:11:33;;;;;;;5.33;2.83;;;26.30;30.20;;;;;;5098769;28;20475;-90
2021/05/13 06:14:00;;;;;;;5.53;2.97;;;26.50;28.80;;;;;;5103306;28;20485;-90
2021/05/13 06:16:26;;;;;;;4.77;2.40;;;27.90;27.90;;;;;;5099821;28;20924;-88
2021/05/13 06:18:54;;;;;;;4.00;2.80;;;27.20;28.30;;;;;;5100723;28;20479;-87
2021/05/13 06:21:22;;;;;;;8.53;2.80;;;27.60;27.50;;;;;;5099735;28;20574;-87
2021/05/13 06:23:50;;;;;;;6.07;3.03;;;27.50;28.20;;;;;;5100174;28;20458;-87
2021/05/13 06:26:24;;;;;;;3.77;2.70;;;28.00;28.00;;;;;;5098660;28;20474;-87
2021/05/13 06:28:52;;;;;;;10.33;2.80;;;28.90;26.30;;;;;;5103988;28;20411;-87
2021/05/13 06:31:19;;;;;;;4.30;2.70;;;29.40;24.90;;;;;;5100669;28;20431;-87
2021/05/13 06:33:45;;;;;;;7.13;3.40;;;28.60;25.60;;;;;;5101538;28;20446;-87
2021/05/13 06:36:12;;;;;;;8.43;3.40;;;28.00;26.00;;;;;;5099792;28;20483;-87
2021/05/13 06:38:38;;;;;;;16.13;3.07;;;28.50;25.90;;;;;;5100521;28;20505;-88
2021/05/13 06:41:06;;;;;;;4.53;2.70;;;28.70;26.20;;;;;;5097601;28;20477;-88
2021/05/13 06:43:33;;;;;;;6.70;2.90;;;30.30;23.80;;;;;;5102487;28;20442;-87
2021/05/13 06:46:00;;;;;;;7.40;3.20;;;28.60;26.10;;;;;;5110599;28;20545;-87
2021/05/13 06:48:27;;;;;;;7.00;3.73;;;29.20;23.70;;;;;;5120550;28;20477;-87
2021/05/13 06:50:54;;;;;;;5.30;2.93;;;28.30;25.80;;;;;;5119227;28;20911;-87
2021/05/13 06:53:20;;;;;;;5.60;2.70;;;30.10;23.50;;;;;;5121111;28;20448;-87
2021/05/13 06:55:51;;;;;;;5.90;3.13;;;29.90;23.60;;;;;;5120417;28;20541;-88
2021/05/13 06:58:18;;;;;;;9.40;3.20;;;28.50;25.80;;;;;;5120304;28;20510;-87
2021/05/13 07:00:45;;;;;;;6.70;3.20;;;30.20;24.30;;;;;;5119926;28;20449;-88
2021/05/13 07:03:12;;;;;;;10.80;3.67;;;29.60;24.50;;;;;;5120670;28;20473;-87
2021/05/13 07:05:39;;;;;;;4.70;2.70;;;30.10;23.60;;;;;;5119223;28;20452;-88
2021/05/13 07:08:06;;;;;;;5.57;3.30;;;30.20;24.00;;;;;;5117655;28;20520;-90
2021/05/13 07:10:34;;;;;;;6.70;3.10;;;28.90;24.20;;;;;;5120376;28;20622;-89
2021/05/13 07:13:00;;;;;;;4.77;3.40;;;28.90;25.60;;;;;;5120008;28;20425;-89
2021/05/13 07:15:27;;;;;;;7.27;2.90;;;28.60;25.70;;;;;;5116972;28;20476;-90
2021/05/13 07:17:53;;;;;;;5.23;3.13;;;28.70;25.60;;;;;;5119670;28;20422;-90
2021/05/13 07:20:22;;;;;;;13.50;3.40;;;28.90;24.20;;;;;;5120250;28;20433;-89
2021/05/13 07:22:49;;;;;;;5.10;3.00;;;29.90;23.40;;;;;;5120308;28;20516;-89
2021/05/13 07:25:15;;;;;;;6.00;2.70;;;29.80;23.10;;;;;;5119937;28;20499;-90
2021/05/13 07:27:43;;;;;;;5.53;2.67;;;29.40;23.50;;;;;;5120847;28;20453;-90
2021/05/13 07:30:11;;;;;;;7.10;2.97;;;29.50;24.20;;;;;;5119829;28;20492;-90
2021/05/13 07:32:37;;;;;;;14.37;3.23;;;30.10;23.40;;;;;;5112963;28;20856;-89
2021/05/13 07:35:04;;;;;;;5.10;2.87;;;29.20;24.70;;;;;;5096489;28;21028;-90
2021/05/13 07:37:31;;;;;;;4.67;2.60;;;29.30;24.40;;;;;;5095701;28;20519;-90
2021/05/13 07:39:58;;;;;;;6.20;2.53;;;28.90;24.40;;;;;;5094372;28;20449;-90
2021/05/13 07:42:25;;;;;;;8.57;2.33;;;28.20;25.30;;;;;;5093599;28;20482;-90
2021/05/13 07:44:51;;;;;;;6.30;3.03;;;29.30;23.10;;;;;;5097316;28;20608;-90
2021/05/13 07:47:20;;;;;;;3.50;2.47;;;28.30;24.20;;;;;;5096955;28;20491;-89
2021/05/13 07:49:47;;;;;;;5.07;2.67;;;28.10;24.90;;;;;;5097244;28;20537;-90
2021/05/13 07:52:13;;;;;;;4.13;2.50;;;28.80;23.50;;;;;;5097097;28;20527;-90
2021/05/13 07:54:41;;;;;;;4.10;2.60;;;29.80;23.30;;;;;;5097254;28;20450;-90
2021/05/13 07:57:07;;;;;;;5.60;2.57;;;30.20;22.40;;;;;;5097205;28;20434;-90
2021/05/13 07:59:34;;;;;;;5.20;2.33;;;30.10;22.40;;;;;;5098953;28;20446;-89
2021/05/13 08:02:00;;;;;;;4.73;2.90;;;29.00;22.40;;;;;;5096917;28;21042;-89
2021/05/13 08:04:27;;;;;;;9.37;2.30;;;29.30;23.30;;;;;;5097612;28;20527;-89
2021/05/13 08:06:53;;;;;;;4.33;2.20;;;29.40;23.20;;;;;;5097341;28;20940;-89
2021/05/13 08:09:19;;;;;;;5.87;2.43;;;29.40;23.40;;;;;;5097363;28;20533;-89
2021/05/13 08:11:47;;;;;;;5.60;3.10;;;29.90;22.40;;;;;;5097760;28;20838;-90
2021/05/13 08:14:13;;;;;;;5.77;2.60;;;28.70;22.90;;;;;;5097072;28;20457;-90
2021/05/13 08:16:39;;;;;;;6.03;2.50;;;28.60;23.60;;;;;;5097448;28;20469;-89
2021/05/13 08:19:07;;;;;;;5.30;2.40;;;29.60;21.80;;;;;;5103877;28;20867;-90
2021/05/13 08:21:35;;;;;;;6.70;2.43;;;29.80;22.00;;;;;;5096761;28;20476;-89
2021/05/13 08:24:02;;;;;;;2.40;1.90;;;29.60;22.30;;;;;;5098163;28;20509;-90
2021/05/13 08:26:28;;;;;;;3.50;2.10;;;29.50;21.90;;;;;;5097525;28;20496;-89
2021/05/13 08:28:56;;;;;;;4.87;2.30;;;29.40;22.20;;;;;;5097515;28;20947;-89
2021/05/13 08:31:22;;;;;;;6.50;2.27;;;28.50;23.40;;;;;;5097410;28;20508;-89
2021/05/13 08:33:49;;;;;;;8.87;2.10;;;28.20;24.30;;;;;;5097953;28;20784;-89
2021/05/13 08:36:15;;;;;;;4.70;2.20;;;28.10;24.80;;;;;;5099474;28;20454;-89
2021/05/13 08:38:42;;;;;;;4.73;2.10;;;27.30;25.20;;;;;;5097186;28;20438;-90
2021/05/13 08:41:10;;;;;;;4.20;2.20;;;27.20;24.90;;;;;;5097145;28;21015;-90
2021/05/13 08:43:36;;;;;;;4.70;2.33;;;27.00;24.40;;;;;;5096434;28;20480;-89
2021/05/13 08:46:04;;;;;;;3.50;2.20;;;26.80;25.60;;;;;;5096586;28;20458;-89
2021/05/13 08:48:30;;;;;;;5.90;2.63;;;25.60;26.30;;;;;;5096455;28;20442;-89
2021/05/13 08:50:59;;;;;;;6.37;2.30;;;26.00;25.40;;;;;;5097028;28;20446;-89
2021/05/13 08:53:25;;;;;;;3.17;2.00;;;25.80;26.60;;;;;;5096172;28;20486;-89
2021/05/13 08:55:52;;;;;;;2.47;1.93;;;25.00;25.20;;;;;;5096508;28;21108;-89
2021/05/13 08:58:18;;;;;;;3.50;2.10;;;24.40;25.20;;;;;;5096568;28;20477;-90
2021/05/13 09:00:51;;;;;;;4.30;2.10;;;23.90;26.80;;;;;;5096946;28;20442;-89
2021/05/13 09:03:31;;;;;;;7.23;2.10;;;24.50;27.20;;;;;;5095855;28;20820;-89
2021/05/13 09:05:58;;;;;;;6.40;2.20;;;25.30;25.10;;;;;;5095870;28;20962;-89
2021/05/13 09:08:25;;;;;;;6.40;2.03;;;25.10;24.50;;;;;;5095910;28;20511;-89
2021/05/13 09:10:51;;;;;;;2.17;1.67;;;25.90;24.50;;;;;;5096230;28;20455;-89
2021/05/13 09:13:26;;;;;;;4.17;1.87;;;26.00;24.00;;;;;;5096102;28;20466;-89
2021/05/13 09:15:53;;;;;;;4.63;2.00;;;25.90;24.30;;;;;;5095717;28;20547;-89
2021/05/13 09:18:32;;;;;;;5.73;2.27;;;26.00;23.50;;;;;;5095751;28;20599;-89
2021/05/13 09:21:05;;;;;;;2.20;1.73;;;25.80;24.60;;;;;;5095568;28;20837;-89
2021/05/13 09:23:32;;;;;;;4.03;2.30;;;26.20;23.30;;;;;;5095734;28;20535;-90
2021/05/13 09:26:06;;;;;;;5.40;2.10;;;26.10;22.60;;;;;;5120818;22;20508;-86
2021/05/13 09:28:33;;;;;;;6.60;3.07;;;26.10;22.80;;;;;;5112667;28;20426;-86
2021/05/13 09:31:00;;;;;;;7.27;2.60;;;25.20;24.50;;;;;;5111799;28;20447;-85
2021/05/13 09:33:28;;;;;;;3.70;2.00;;;24.00;23.30;;;;;;5110452;28;20419;-85
2021/05/13 09:35:56;;;;;;;7.30;2.40;;;23.80;24.60;;;;;;5111595;28;20500;-85
2021/05/13 09:38:32;;;;;;;4.53;2.53;;;24.80;24.30;;;;;;5112764;28;20423;-85
2021/05/13 09:40:58;;;;;;;8.33;2.13;;;25.20;24.00;;;;;;5111265;28;20475;-86
2021/05/13 09:43:28;;;;;;;10.50;2.57;;;25.10;23.30;;;;;;5109503;28;20461;-85
2021/05/13 09:45:57;;;;;;;3.40;2.10;;;24.60;24.00;;;;;;5113070;28;20934;-86
2021/05/13 09:48:34;;;;;;;5.43;2.70;;;24.80;24.00;;;;;;5108009;28;20460;-85
2021/05/13 09:51:19;;;;;;;7.33;2.90;;;24.90;24.70;;;;;;5099515;28;20449;-84
2021/05/13 09:53:47;;;;;;;4.33;2.10;;;24.70;24.20;;;;;;5101651;28;20543;-84
2021/05/13 09:56:24;;;;;;;4.40;2.00;;;24.90;24.00;;;;;;5096941;28;20532;-85
2021/05/13 09:58:51;;;;;;;2.93;2.17;;;25.50;24.30;;;;;;5097338;28;20449;-85
2021/05/13 10:01:18;;;;;;;5.93;2.67;;;25.40;23.20;;;;;;5097676;28;20474;-84
2021/05/13 10:03:45;;;;;;;5.00;2.00;;;25.70;22.80;;;;;;5098003;28;20839;-84
2021/05/13 10:06:12;;;;;;;2.97;2.10;;;25.80;23.30;;;;;;5097601;28;20470;-84
2021/05/13 10:08:42;;;;;;;6.03;2.10;;;25.80;21.90;;;;;;5100102;28;20442;-84
2021/05/13 10:11:09;;;;;;;12.73;2.43;;;24.80;22.80;;;;;;5101393;28;20473;-84
2021/05/13 10:13:36;;;;;;;5.97;2.30;;;25.20;24.50;;;;;;5116586;28;20443;-84
2021/05/13 10:16:04;;;;;;;7.83;3.07;;;25.10;25.20;;;;;;5116223;28;20446;-84
2021/05/13 10:18:37;;;;;;;7.90;3.47;;;25.00;24.70;;;;;;5097958;28;20760;-84
2021/05/13 10:21:09;;;;;;;9.20;2.70;;;25.30;25.30;;;;;;5101009;28;20451;-85
2021/05/13 10:23:37;;;;;;;9.43;2.33;;;25.00;26.00;;;;;;5101393;28;20885;-85
2021/05/13 10:26:04;;;;;;;5.37;2.63;;;24.50;25.50;;;;;;5099501;28;20466;-85
2021/05/13 10:28:32;;;;;;;5.63;2.20;;;24.50;25.60;;;;;;5100070;28;20430;-84
2021/05/13 10:31:02;;;;;;;5.23;2.00;;;24.30;26.00;;;;;;5101746;28;20430;-84
2021/05/13 10:33:44;;;;;;;9.83;2.10;;;24.00;25.10;;;;;;5098377;28;20435;-85
2021/05/13 10:36:15;;;;;;;8.67;2.97;;;24.00;25.20;;;;;;5099520;28;20481;-84
2021/05/13 10:38:45;;;;;;;5.80;2.00;;;23.90;25.40;;;;;;5100736;28;20408;-85
2021/05/13 10:41:40;;;;;;;6.53;3.80;;;23.80;26.70;;;;;;5104099;28;20486;-84
2021/05/13 10:44:37;;;;;;;7.37;2.47;;;23.20;27.70;;;;;;5092185;28;20524;-84
2021/05/13 10:47:06;;;;;;;5.90;2.37;;;22.70;28.30;;;;;;5111875;28;20461;-84
2021/05/13 10:49:48;;;;;;;4.23;2.07;;;22.50;28.90;;;;;;5115888;28;20887;-84
2021/05/13 10:52:32;;;;;;;5.90;2.37;;;22.20;29.80;;;;;;5116414;28;20415;-84
2021/05/13 10:54:58;;;;;;;5.40;2.30;;;21.60;30.10;;;;;;5115778;28;20406;-84
2021/05/13 10:57:26;;;;;;;2.77;2.20;;;21.80;29.70;;;;;;5105091;28;20454;-84
2021/05/13 11:00:29;;;;;;;4.23;1.80;;;21.80;29.50;;;;;;5103222;28;20453;-84
2021/05/13 11:02:55;;;;;;;2.27;1.97;;;21.80;29.70;;;;;;5101623;28;20474;-84
2021/05/13 11:05:44;;;;;;;6.60;2.17;;;21.70;29.90;;;;;;5101744;28;20434;-84
2021/05/13 11:08:46;;;;;;;6.40;2.87;;;22.00;29.00;;;;;;5101978;28;20474;-84
2021/05/13 11:11:13;;;;;;;7.13;2.30;;;22.10;29.80;;;;;;5101494;28;20414;-84
2021/05/13 11:13:45;;;;;;;3.00;1.83;;;22.20;28.50;;;;;;5101496;28;20423;-84
2021/05/13 11:16:43;;;;;;;6.73;3.73;;;21.60;29.10;;;;;;5102460;28;20469;-84
2021/05/13 11:19:24;;;;;;;5.43;2.50;;;21.70;28.60;;;;;;5106867;28;20449;-84
2021/05/13 11:22:07;;;;;;;6.20;2.27;;;21.50;29.30;;;;;;5105590;28;20477;-84
2021/05/13 11:24:39;;;;;;;3.40;1.80;;;21.60;28.90;;;;;;5106744;28;20430;-84
2021/05/13 11:27:08;;;;;;;2.57;2.03;;;21.80;28.30;;;;;;5118411;28;20461;-82
2021/05/13 11:29:50;;;;;;;4.53;2.00;;;22.00;28.60;;;;;;5122472;28;20414;-83
2021/05/13 11:32:18;;;;;;;2.57;1.80;;;21.60;28.90;;;;;;5122196;28;20431;-83
2021/05/13 11:34:46;;;;;;;3.30;1.83;;;21.50;29.50;;;;;;5122241;28;20426;-83
2021/05/13 11:37:35;;;;;;;5.10;2.63;;;21.40;29.10;;;;;;5121900;27;20467;-83
2021/05/13 11:40:23;;;;;;;2.90;1.80;;;21.30;29.60;;;;;;5114812;28;20431;-83
2021/05/13 11:42:50;;;;;;;1.60;1.60;;;21.30;29.40;;;;;;5116086;28;20462;-83
2021/05/13 11:45:20;;;;;;;2.27;1.70;;;21.20;29.90;;;;;;5121752;28;20501;-82
2021/05/13 11:47:46;;;;;;;2.67;1.70;;;21.00;30.00;;;;;;5121907;28;20459;-82
2021/05/13 11:50:30;;;;;;;4.83;1.90;;;20.30;30.90;;;;;;5121961;28;20461;-83
2021/05/13 11:53:07;;;;;;;3.10;1.70;;;20.50;31.20;;;;;;5119594;28;20443;-84
2021/05/13 11:55:34;;;;;;;3.20;1.80;;;20.50;30.20;;;;;;5120341;28;20459;-83
2021/05/13 11:58:00;;;;;;;1.67;1.67;;;20.50;30.60;;;;;;5119601;28;20488;-83
2021/05/13 12:00:28;;;;;;;3.10;1.90;;;20.50;30.20;;;;;;5119010;28;20827;-84
2021/05/13 12:03:12;;;;;;;2.23;1.70;;;20.80;30.50;;;;;;5111260;28;20523;-84
2021/05/13 12:05:48;;;;;;;2.30;1.87;;;21.20;30.00;;;;;;5104917;28;20521;-84
2021/05/13 12:08:19;;;;;;;2.80;1.70;;;21.20;29.80;;;;;;5104856;28;20406;-83
2021/05/13 12:10:46;;;;;;;1.83;1.57;;;21.40;29.80;;;;;;5104966;28;20442;-84
2021/05/13 12:13:13;;;;;;;3.10;1.83;;;21.30;29.40;;;;;;5102901;28;20480;-84
2021/05/13 12:15:41;;;;;;;1.70;1.60;;;21.70;29.20;;;;;;5103668;28;20454;-83
2021/05/13 12:18:09;;;;;;;3.70;1.87;;;21.50;29.50;;;;;;5104342;28;20863;-83
2021/05/13 12:20:37;;;;;;;4.40;2.07;;;21.70;29.20;;;;;;5105152;28;20481;-84
2021/05/13 12:23:05;;;;;;;4.27;1.80;;;21.60;29.00;;;;;;5105678;28;20850;-85
2021/05/13 12:25:33;;;;;;;3.20;1.80;;;21.90;29.20;;;;;;5109546;28;20445;-85
2021/05/13 12:28:00;;;;;;;3.67;1.70;;;21.70;29.30;;;;;;5106004;28;20467;-84
2021/05/13 12:30:27;;;;;;;4.10;2.33;;;21.50;27.80;;;;;;5107378;28;20445;-83
2021/05/13 12:32:54;;;;;;;2.10;1.80;;;22.00;29.60;;;;;;5105652;28;20947;-83
2021/05/13 12:35:25;;;;;;;3.30;1.70;;;22.20;27.20;;;;;;5107447;28;20511;-82
2021/05/13 12:37:52;;;;;;;4.57;1.50;;;22.50;27.60;;;;;;5106040;28;20466;-82
2021/05/13 12:40:20;;;;;;;4.50;1.80;;;22.90;27.00;;;;;;5106265;28;20434;-83
2021/05/13 12:42:46;;;;;;;2.93;1.77;;;23.10;26.50;;;;;;5104482;28;20497;-83
2021/05/13 12:45:14;;;;;;;2.07;1.77;;;23.20;26.30;;;;;;5107831;28;20446;-84
2021/05/13 12:47:41;;;;;;;3.23;2.00;;;23.20;26.80;;;;;;5105474;28;20870;-83
2021/05/13 12:50:10;;;;;;;2.30;1.80;;;23.30;27.50;;;;;;5105556;28;20447;-83
2021/05/13 12:52:36;;;;;;;5.23;2.20;;;23.50;27.50;;;;;;5108772;28;20443;-84